createdAt,value
2018-03-28T00:01:01.559Z,21.30
2018-03-28T00:03:29.215Z,21.97
2018-03-28T00:05:56.647Z,21.30
2018-03-28T00:08:24.139Z,21.77
2018-03-28T00:10:51.604Z,22.17
2018-03-28T00:13:19.163Z,22.10
2018-03-28T00:15:46.636Z,22.20
2018-03-28T00:18:14.091Z,21.83
2018-03-28T00:20:41.565Z,22.27
2018-03-28T00:23:09.124Z,22.07
2018-03-28T00:25:36.689Z,20.50
2018-03-28T00:28:04.144Z,22.60
2018-03-28T00:30:31.604Z,21.10
2018-03-28T00:32:59.047Z,21.10
2018-03-28T00:35:26.524Z,21.67
2018-03-28T00:37:53.960Z,22.43
2018-03-28T00:40:21.408Z,23.10
2018-03-28T00:42:48.908Z,22.60
2018-03-28T00:45:16.373Z,24.00
2018-03-28T00:47:43.812Z,24.30
2018-03-28T00:50:11.261Z,22.80
2018-03-28T00:52:38.687Z,23.40
2018-03-28T00:55:06.132Z,24.00
2018-03-28T00:57:33.568Z,23.70
2018-03-28T01:00:01.037Z,23.07
2018-03-28T01:02:28.471Z,24.27
2018-03-28T01:04:55.967Z,23.90
2018-03-28T01:07:23.396Z,22.70
2018-03-28T01:09:50.839Z,24.57
2018-03-28T01:12:18.343Z,23.50
2018-03-28T01:14:45.809Z,27.40
2018-03-28T01:17:13.268Z,23.90
2018-03-28T01:19:40.736Z,24.00
2018-03-28T01:22:08.205Z,23.93
2018-03-28T01:24:35.662Z,24.57
2018-03-28T01:27:03.188Z,23.50
2018-03-28T01:29:30.631Z,23.90
2018-03-28T01:31:58.956Z,24.07
2018-03-28T01:34:26.397Z,23.90
2018-03-28T01:36:53.841Z,21.57
2018-03-28T01:39:22.059Z,23.43
2018-03-28T01:41:49.512Z,24.50
2018-03-28T01:44:16.979Z,25.10
2018-03-28T01:46:44.420Z,25.07
2018-03-28T01:49:11.904Z,24.70
2018-03-28T01:51:39.339Z,25.40
2018-03-28T01:54:06.829Z,26.50
2018-03-28T01:56:34.279Z,27.00
2018-03-28T01:59:01.758Z,27.43
2018-03-28T02:01:29.228Z,29.13
2018-03-28T02:03:56.658Z,31.47
2018-03-28T02:06:24.231Z,30.10
2018-03-28T02:08:51.696Z,30.73
2018-03-28T02:11:19.108Z,28.90
2018-03-28T02:13:47.314Z,28.73
2018-03-28T02:16:14.771Z,28.87
2018-03-28T02:18:42.256Z,28.70
2018-03-28T02:21:09.729Z,29.57
2018-03-28T02:23:37.264Z,30.03
2018-03-28T02:26:04.740Z,28.90
2018-03-28T02:28:32.180Z,28.70
2018-03-28T02:30:59.672Z,30.87
2018-03-28T02:33:27.108Z,30.57
2018-03-28T02:35:54.561Z,31.10
2018-03-28T02:38:22.043Z,29.97
2018-03-28T02:40:49.511Z,31.43
2018-03-28T02:43:16.949Z,31.10
2018-03-28T02:45:44.448Z,30.07
2018-03-28T02:48:11.900Z,29.90
2018-03-28T02:50:39.358Z,31.00
2018-03-28T02:53:06.824Z,29.77
2018-03-28T02:55:34.265Z,31.50
2018-03-28T02:58:01.704Z,30.20
2018-03-28T03:00:29.174Z,29.93
2018-03-28T03:02:56.609Z,29.97
2018-03-28T03:05:24.828Z,27.80
2018-03-28T03:07:52.325Z,28.60
2018-03-28T03:10:19.778Z,30.43
2018-03-28T03:12:47.215Z,28.90
2018-03-28T03:15:14.663Z,30.40
2018-03-28T03:17:42.100Z,28.40
2018-03-28T03:20:10.300Z,28.17
2018-03-28T03:22:37.888Z,29.43
2018-03-28T03:25:05.450Z,28.90
2018-03-28T03:27:32.882Z,30.53
2018-03-28T03:30:00.355Z,29.67
2018-03-28T03:32:27.791Z,30.73
2018-03-28T03:34:55.991Z,29.60
2018-03-28T03:37:23.431Z,29.80
2018-03-28T03:39:51.628Z,29.10
2018-03-28T03:42:19.120Z,28.87
2018-03-28T03:44:46.581Z,30.40
2018-03-28T03:47:14.019Z,29.53
2018-03-28T03:49:41.460Z,29.50
2018-03-28T03:52:08.900Z,30.27
2018-03-28T03:54:37.141Z,29.37
2018-03-28T03:57:04.583Z,29.80
2018-03-28T03:59:32.060Z,30.23
2018-03-28T04:01:59.536Z,28.07
2018-03-28T04:04:26.988Z,28.90
2018-03-28T04:06:54.437Z,28.67
2018-03-28T04:09:21.913Z,29.20
2018-03-28T04:11:49.383Z,29.23
2018-03-28T04:14:16.839Z,31.37
2018-03-28T04:16:44.283Z,30.00
2018-03-28T04:19:11.724Z,28.50
2018-03-28T04:21:39.212Z,28.30
2018-03-28T04:24:06.675Z,27.70
2018-03-28T04:26:34.140Z,28.33
2018-03-28T04:29:01.580Z,28.97
2018-03-28T04:31:29.055Z,28.80
2018-03-28T04:33:56.488Z,27.37
2018-03-28T04:36:23.983Z,28.07
2018-03-28T04:38:51.419Z,28.53
2018-03-28T04:41:18.904Z,29.20
2018-03-28T04:43:46.380Z,26.50
2018-03-28T04:46:13.811Z,28.50
2018-03-28T04:48:41.252Z,28.27
2018-03-28T04:51:08.762Z,27.50
2018-03-28T04:53:36.198Z,28.00
2018-03-28T04:56:03.680Z,27.93
2018-03-28T04:58:31.112Z,28.40
2018-03-28T05:00:58.572Z,26.80
2018-03-28T05:03:26.061Z,27.50
2018-03-28T05:05:53.496Z,25.90
2018-03-28T05:08:20.948Z,26.97
2018-03-28T05:10:48.438Z,26.20
2018-03-28T05:13:15.888Z,26.90
2018-03-28T05:15:43.407Z,27.10
2018-03-28T05:18:10.823Z,30.00
2018-03-28T05:20:38.292Z,27.47
2018-03-28T05:23:05.852Z,29.50
2018-03-28T05:25:33.311Z,29.17
2018-03-28T05:28:00.750Z,28.60
2018-03-28T05:30:28.192Z,26.17
2018-03-28T05:32:55.696Z,28.47
2018-03-28T05:35:23.164Z,27.03
2018-03-28T05:37:50.651Z,26.50
2018-03-28T05:40:18.183Z,29.17
2018-03-28T05:42:45.643Z,28.20
2018-03-28T05:45:13.059Z,27.90
2018-03-28T05:47:41.284Z,29.33
2018-03-28T05:50:08.750Z,27.07
2018-03-28T05:52:36.266Z,28.00
2018-03-28T05:55:03.689Z,28.10
2018-03-28T05:57:31.127Z,26.50
2018-03-28T05:59:58.602Z,27.40
2018-03-28T06:02:26.047Z,27.60
2018-03-28T06:04:53.490Z,27.60
2018-03-28T06:07:21.028Z,27.33
2018-03-28T06:09:48.419Z,26.80
2018-03-28T06:12:15.864Z,28.40
2018-03-28T06:14:43.359Z,24.77
2018-03-28T06:17:11.036Z,27.20
2018-03-28T06:19:38.476Z,26.17
2018-03-28T06:22:05.930Z,25.93
2018-03-28T06:24:33.391Z,26.30
2018-03-28T06:27:01.576Z,25.63
2018-03-28T06:29:29.020Z,24.67
2018-03-28T06:31:56.460Z,25.27
2018-03-28T06:34:24.784Z,25.80
2018-03-28T06:36:52.195Z,23.47
2018-03-28T06:39:20.427Z,26.03
2018-03-28T06:41:47.867Z,25.07
2018-03-28T06:44:16.081Z,24.10
2018-03-28T06:46:43.517Z,23.70
2018-03-28T06:49:10.965Z,24.53
2018-03-28T06:51:38.400Z,24.53
2018-03-28T06:54:06.622Z,23.00
2018-03-28T06:56:34.054Z,22.90
2018-03-28T06:59:01.491Z,22.73
2018-03-28T07:01:29.019Z,21.20
2018-03-28T07:03:56.487Z,23.00
2018-03-28T07:06:23.939Z,22.03
2018-03-28T07:08:51.399Z,22.47
2018-03-28T07:11:18.834Z,24.20
2018-03-28T07:13:46.278Z,22.67
2018-03-28T07:16:14.516Z,22.87
2018-03-28T07:18:42.508Z,22.03
2018-03-28T07:21:09.945Z,22.50
2018-03-28T07:23:37.396Z,20.57
2018-03-28T07:26:04.836Z,21.43
2018-03-28T07:28:32.280Z,20.13
2018-03-28T07:30:59.720Z,20.43
2018-03-28T07:33:27.168Z,20.33
2018-03-28T07:35:54.704Z,20.30
2018-03-28T07:38:22.148Z,25.00
2018-03-28T07:40:49.579Z,23.20
2018-03-28T07:43:17.783Z,21.53
2018-03-28T07:45:45.274Z,22.50
2018-03-28T07:48:12.736Z,22.17
2018-03-28T07:50:40.167Z,23.80
2018-03-28T07:53:07.652Z,23.80
2018-03-28T07:55:35.103Z,22.53
2018-03-28T07:58:02.544Z,21.03
2018-03-28T08:00:30.012Z,21.93
2018-03-28T08:02:57.452Z,22.60
2018-03-28T08:05:25.680Z,22.23
2018-03-28T08:07:53.178Z,20.83
2018-03-28T08:10:20.695Z,23.90
2018-03-28T08:12:48.159Z,20.77
2018-03-28T08:15:15.619Z,20.50
2018-03-28T08:17:43.060Z,20.90
2018-03-28T08:20:10.551Z,21.77
2018-03-28T08:22:38.028Z,22.23
2018-03-28T08:25:05.463Z,22.00
2018-03-28T08:27:32.900Z,22.00
2018-03-28T08:30:00.355Z,20.80
2018-03-28T08:32:27.829Z,21.80
2018-03-28T08:34:55.327Z,21.50
2018-03-28T08:37:22.855Z,22.07
2018-03-28T08:39:50.299Z,20.97
2018-03-28T08:42:17.805Z,21.20
2018-03-28T08:44:45.342Z,21.40
2018-03-28T08:47:12.905Z,21.47
2018-03-28T08:49:40.390Z,22.00
2018-03-28T08:52:07.828Z,20.13
2018-03-28T08:54:35.290Z,20.30
2018-03-28T08:57:02.771Z,20.00
2018-03-28T08:59:30.225Z,20.60
2018-03-28T09:01:57.716Z,20.40
2018-03-28T09:04:25.263Z,19.83
2018-03-28T09:06:52.702Z,21.57
2018-03-28T09:09:20.183Z,22.70
2018-03-28T09:11:47.620Z,21.63
2018-03-28T09:14:15.077Z,21.60
2018-03-28T09:16:42.567Z,20.23
2018-03-28T09:19:10.046Z,20.60
2018-03-28T09:21:37.472Z,21.80
2018-03-28T09:24:04.934Z,20.37
2018-03-28T09:26:32.411Z,20.97
2018-03-28T09:28:59.860Z,20.87
2018-03-28T09:31:27.345Z,23.10
2018-03-28T09:33:54.796Z,20.90
2018-03-28T09:36:22.340Z,19.90
2018-03-28T09:38:49.818Z,21.87
2018-03-28T09:41:17.244Z,21.77
2018-03-28T09:43:44.747Z,21.30
2018-03-28T09:46:12.288Z,22.37
2018-03-28T09:48:39.780Z,22.40
2018-03-28T09:51:07.240Z,20.90
2018-03-28T09:53:34.691Z,22.33
2018-03-28T09:56:02.203Z,22.10
2018-03-28T09:58:29.702Z,22.33
2018-03-28T10:01:02.788Z,25.03
2018-03-28T10:03:30.233Z,23.23
2018-03-28T10:05:57.691Z,25.20
2018-03-28T10:08:26.684Z,25.83
2018-03-28T10:10:53.444Z,28.50
2018-03-28T10:13:20.930Z,28.10
2018-03-28T10:15:48.399Z,33.00
2018-03-28T10:18:15.855Z,31.20
2018-03-28T10:20:43.313Z,33.03
2018-03-28T10:23:10.761Z,33.67
2018-03-28T10:25:38.256Z,36.00
2018-03-28T10:28:05.708Z,36.07
2018-03-28T10:30:33.156Z,35.00
2018-03-28T10:33:00.707Z,33.73
2018-03-28T10:35:28.140Z,34.77
2018-03-28T10:37:56.353Z,33.07
2018-03-28T10:40:23.820Z,35.63
2018-03-28T10:42:51.240Z,35.80
2018-03-28T10:45:19.553Z,34.83
2018-03-28T10:47:47.039Z,34.07
2018-03-28T10:50:14.500Z,32.97
2018-03-28T10:52:41.960Z,33.37
2018-03-28T10:55:09.435Z,33.47
2018-03-28T10:57:36.879Z,33.23
2018-03-28T11:00:04.349Z,34.57
2018-03-28T11:02:31.807Z,31.80
2018-03-28T11:04:59.372Z,36.97
2018-03-28T11:07:26.816Z,31.03
2018-03-28T11:09:54.268Z,29.80
2018-03-28T11:12:21.726Z,26.40
2018-03-28T11:14:49.214Z,27.33
2018-03-28T11:17:16.656Z,28.10
2018-03-28T11:19:44.108Z,27.83
2018-03-28T11:22:11.600Z,26.70
2018-03-28T11:24:39.076Z,26.53
2018-03-28T11:27:06.512Z,28.87
2018-03-28T11:29:33.982Z,28.03
2018-03-28T11:32:01.451Z,27.37
2018-03-28T11:34:28.903Z,28.30
2018-03-28T11:36:56.371Z,27.63
2018-03-28T11:39:23.820Z,26.63
2018-03-28T11:41:51.274Z,27.83
2018-03-28T11:44:18.771Z,28.57
2018-03-28T11:46:46.223Z,30.17
2018-03-28T11:49:13.688Z,29.13
2018-03-28T11:51:41.201Z,30.30
2018-03-28T11:54:08.635Z,30.00
2018-03-28T11:56:36.850Z,30.20
2018-03-28T11:59:04.312Z,30.77
2018-03-28T12:01:31.878Z,29.47
2018-03-28T12:03:59.338Z,31.70
2018-03-28T12:06:26.835Z,30.80
2018-03-28T12:08:54.289Z,31.63
2018-03-28T12:11:21.751Z,30.90
2018-03-28T12:13:49.219Z,30.77
2018-03-28T12:16:16.681Z,31.10
2018-03-28T12:18:44.111Z,30.83
2018-03-28T12:21:11.569Z,30.37
2018-03-28T12:23:39.007Z,29.90
2018-03-28T12:26:06.451Z,32.43
2018-03-28T12:28:34.679Z,28.53
2018-03-28T12:31:02.155Z,29.03
2018-03-28T12:33:29.621Z,27.87
2018-03-28T12:35:57.958Z,24.60
2018-03-28T12:38:25.488Z,26.07
2018-03-28T12:40:52.940Z,25.33
2018-03-28T12:43:20.491Z,24.10
2018-03-28T12:45:47.945Z,25.67
2018-03-28T12:48:15.416Z,24.53
2018-03-28T12:50:42.900Z,24.33
2018-03-28T12:53:10.440Z,24.37
2018-03-28T12:55:37.888Z,25.63
2018-03-28T12:58:05.357Z,23.60
2018-03-28T13:00:32.815Z,24.33
2018-03-28T13:03:01.099Z,23.43
2018-03-28T13:05:28.564Z,23.10
2018-03-28T13:07:56.073Z,22.60
2018-03-28T13:10:23.561Z,23.87
2018-03-28T13:12:50.992Z,22.60
2018-03-28T13:15:19.199Z,23.30
2018-03-28T13:17:46.652Z,24.50
2018-03-28T13:20:14.153Z,22.80
2018-03-28T13:22:41.609Z,22.93
2018-03-28T13:25:09.149Z,23.07
2018-03-28T13:27:36.639Z,25.40
2018-03-28T13:30:04.083Z,24.50
2018-03-28T13:32:31.579Z,23.57
2018-03-28T13:34:59.023Z,23.37
2018-03-28T13:37:26.488Z,24.60
2018-03-28T13:39:53.931Z,25.07
2018-03-28T13:42:21.401Z,24.43
2018-03-28T13:44:48.839Z,22.80
2018-03-28T13:47:16.312Z,22.73
2018-03-28T13:49:43.747Z,23.10
2018-03-28T13:52:11.191Z,23.80
2018-03-28T13:54:39.403Z,24.50
2018-03-28T13:57:06.863Z,26.97
2018-03-28T13:59:34.355Z,25.60
2018-03-28T14:02:01.804Z,26.77
2018-03-28T14:04:29.245Z,22.33
2018-03-28T14:06:56.686Z,22.50
2018-03-28T14:09:24.895Z,26.27
2018-03-28T14:11:52.343Z,26.23
2018-03-28T14:14:19.784Z,21.77
2018-03-28T14:16:48.023Z,21.90
2018-03-28T14:19:15.481Z,25.00
2018-03-28T14:21:43.008Z,23.80
2018-03-28T14:24:10.368Z,22.43
2018-03-28T14:26:37.863Z,22.80
2018-03-28T14:29:05.316Z,23.60
2018-03-28T14:31:32.771Z,23.43
2018-03-28T14:34:00.425Z,22.27
2018-03-28T14:36:27.890Z,19.57
2018-03-28T14:38:55.319Z,18.87
2018-03-28T14:41:23.529Z,19.63
2018-03-28T14:43:50.970Z,17.50
2018-03-28T14:46:18.414Z,19.40
2018-03-28T14:48:45.955Z,19.20
2018-03-28T14:51:13.400Z,17.40
2018-03-28T14:53:40.936Z,15.97
2018-03-28T14:56:08.356Z,13.87
2018-03-28T14:58:35.804Z,13.57
2018-03-28T15:01:03.235Z,10.97
2018-03-28T15:03:30.695Z,9.10
2018-03-28T15:05:58.180Z,9.90
2018-03-28T15:08:25.708Z,9.20
2018-03-28T15:10:53.144Z,9.37
2018-03-28T15:13:21.485Z,8.77
2018-03-28T15:15:48.875Z,9.50
2018-03-28T15:18:16.407Z,8.10
2018-03-28T15:20:43.872Z,8.07
2018-03-28T15:23:11.315Z,6.97
2018-03-28T15:25:38.799Z,6.30
2018-03-28T15:28:06.232Z,6.40
2018-03-28T15:30:33.676Z,6.40
2018-03-28T15:33:01.159Z,6.07
2018-03-28T15:35:28.729Z,5.80
2018-03-28T15:37:56.194Z,7.00
2018-03-28T15:40:23.637Z,6.90
2018-03-28T15:42:51.085Z,11.73
2018-03-28T15:45:18.521Z,22.27
2018-03-28T15:47:46.732Z,18.10
2018-03-28T15:50:14.176Z,9.47
2018-03-28T15:52:41.649Z,6.70
2018-03-28T15:55:09.218Z,8.30
2018-03-28T15:57:36.700Z,6.30
2018-03-28T16:00:04.156Z,5.90
2018-03-28T16:02:31.628Z,6.70
2018-03-28T16:04:59.088Z,6.47
2018-03-28T16:07:26.555Z,7.27
2018-03-28T16:09:54.003Z,8.10
2018-03-28T16:12:21.544Z,7.07
2018-03-28T16:14:48.971Z,7.07
2018-03-28T16:17:16.391Z,6.50
2018-03-28T16:19:43.854Z,6.20
2018-03-28T16:22:11.314Z,6.77
2018-03-28T16:24:38.762Z,6.50
2018-03-28T16:27:06.240Z,12.47
2018-03-28T16:29:33.692Z,6.70
2018-03-28T16:32:01.151Z,8.47
2018-03-28T16:34:28.608Z,10.97
2018-03-28T16:36:56.036Z,11.63
2018-03-28T16:39:23.489Z,7.47
2018-03-28T16:41:51.761Z,6.40
2018-03-28T16:44:19.281Z,7.40
2018-03-28T16:46:46.823Z,6.67
2018-03-28T16:49:15.024Z,6.27
2018-03-28T16:51:42.593Z,8.10
2018-03-28T16:54:10.044Z,7.17
2018-03-28T16:56:37.476Z,7.03
2018-03-28T16:59:04.944Z,7.83
2018-03-28T17:01:32.415Z,6.60
2018-03-28T17:03:59.891Z,6.87
2018-03-28T17:06:27.350Z,7.00
2018-03-28T17:08:54.832Z,7.13
2018-03-28T17:11:22.277Z,7.57
2018-03-28T17:13:49.753Z,7.40
2018-03-28T17:16:17.228Z,6.70
2018-03-28T17:18:44.668Z,7.20
2018-03-28T17:21:12.130Z,8.53
2018-03-28T17:23:39.563Z,8.13
2018-03-28T17:26:07.036Z,7.73
2018-03-28T17:28:34.457Z,8.30
2018-03-28T17:31:02.688Z,8.53
2018-03-28T17:33:30.156Z,17.33
2018-03-28T17:35:57.607Z,11.50
2018-03-28T17:38:25.072Z,10.63
2018-03-28T17:40:52.551Z,8.30
2018-03-28T17:43:20.113Z,11.00
2018-03-28T17:45:47.555Z,9.67
2018-03-28T17:48:14.995Z,10.00
2018-03-28T17:50:42.476Z,11.17
2018-03-28T17:53:09.941Z,10.50
2018-03-28T17:55:37.364Z,9.93
2018-03-28T17:58:04.863Z,10.23
2018-03-28T18:00:32.292Z,9.60
2018-03-28T18:02:59.744Z,11.37
2018-03-28T18:05:27.965Z,10.97
2018-03-28T18:07:55.400Z,11.20
2018-03-28T18:10:22.888Z,10.27
2018-03-28T18:12:50.429Z,10.97
2018-03-28T18:15:17.848Z,11.60
2018-03-28T18:17:45.412Z,11.10
2018-03-28T18:20:12.918Z,11.17
2018-03-28T18:22:40.403Z,12.20
2018-03-28T18:25:07.941Z,11.10
2018-03-28T18:27:35.388Z,12.70
2018-03-28T18:30:03.595Z,12.00
2018-03-28T18:32:31.072Z,12.70
2018-03-28T18:34:58.518Z,12.90
2018-03-28T18:37:25.980Z,13.37
2018-03-28T18:39:53.454Z,13.37
2018-03-28T18:42:20.887Z,12.77
2018-03-28T18:44:48.331Z,13.37
2018-03-28T18:47:15.843Z,13.20
2018-03-28T18:49:43.292Z,13.33
2018-03-28T18:52:10.729Z,20.30
2018-03-28T18:54:38.176Z,19.10
2018-03-28T18:57:06.399Z,20.87
2018-03-28T18:59:33.858Z,23.77
2018-03-28T19:02:01.288Z,22.47
2018-03-28T19:04:28.802Z,26.63
2018-03-28T19:06:56.352Z,24.43
2018-03-28T19:09:23.803Z,25.33
2018-03-28T19:11:51.239Z,26.43
2018-03-28T19:14:18.683Z,25.30
2018-03-28T19:16:46.987Z,25.30
2018-03-28T19:19:14.424Z,20.70
2018-03-28T19:21:42.623Z,18.10
2018-03-28T19:24:10.136Z,12.70
2018-03-28T19:26:37.572Z,10.67
2018-03-28T19:29:05.018Z,11.93
2018-03-28T19:31:32.500Z,11.40
2018-03-28T19:33:59.947Z,10.80
2018-03-28T19:36:27.380Z,8.43
2018-03-28T19:38:54.896Z,8.70
2018-03-28T19:41:22.328Z,7.70
2018-03-28T19:43:49.811Z,5.80
2018-03-28T19:46:17.259Z,5.60
2018-03-28T19:48:44.724Z,4.90
2018-03-28T19:51:12.158Z,4.23
2018-03-28T19:53:39.604Z,4.50
2018-03-28T19:56:07.807Z,4.10
2018-03-28T19:58:35.252Z,4.23
2018-03-28T20:01:02.680Z,4.13
2018-03-28T20:03:30.930Z,4.67
2018-03-28T20:05:58.408Z,5.17
2018-03-28T20:08:25.873Z,4.90
2018-03-28T20:10:53.604Z,5.40
2018-03-28T20:13:21.039Z,6.10
2018-03-28T20:15:48.543Z,6.43
2018-03-28T20:18:15.973Z,7.20
2018-03-28T20:20:43.440Z,8.33
2018-03-28T20:23:10.928Z,9.20
2018-03-28T20:25:38.488Z,9.97
2018-03-28T20:28:05.933Z,10.07
2018-03-28T20:30:33.411Z,9.93
2018-03-28T20:33:00.892Z,10.57
2018-03-28T20:35:28.327Z,11.13
2018-03-28T20:37:55.795Z,10.27
2018-03-28T20:40:23.250Z,11.10
2018-03-28T20:42:50.684Z,10.97
2018-03-28T20:45:18.131Z,11.53
2018-03-28T20:47:46.332Z,10.20
2018-03-28T20:50:13.777Z,9.13
2018-03-28T20:52:41.976Z,10.23
2018-03-28T20:55:09.487Z,9.97
2018-03-28T20:57:37.023Z,9.37
2018-03-28T21:00:04.475Z,9.40
2018-03-28T21:02:31.947Z,8.97
2018-03-28T21:04:59.392Z,7.53
2018-03-28T21:07:26.867Z,7.60
2018-03-28T21:09:54.320Z,8.53
2018-03-28T21:12:21.892Z,11.77
2018-03-28T21:14:49.339Z,10.50
2018-03-28T21:17:16.771Z,10.90
2018-03-28T21:19:44.997Z,11.07
2018-03-28T21:22:12.436Z,11.90
2018-03-28T21:24:39.886Z,10.93
2018-03-28T21:27:07.411Z,10.67
2018-03-28T21:29:34.940Z,10.47
2018-03-28T21:32:02.431Z,10.43
2018-03-28T21:34:29.947Z,9.67
2018-03-28T21:36:57.364Z,9.20
2018-03-28T21:39:24.888Z,9.90
2018-03-28T21:41:52.336Z,8.93
2018-03-28T21:44:19.816Z,8.13
2018-03-28T21:46:47.264Z,8.10
2018-03-28T21:49:14.708Z,9.10
2018-03-28T21:51:42.197Z,8.47
2018-03-28T21:54:09.658Z,7.83
2018-03-28T21:56:37.143Z,8.37
2018-03-28T21:59:04.684Z,7.70
2018-03-28T22:01:32.154Z,7.77
2018-03-28T22:03:59.603Z,7.60
2018-03-28T22:06:27.083Z,8.27
2018-03-28T22:08:54.506Z,8.03
2018-03-28T22:11:21.988Z,7.63
2018-03-28T22:13:49.420Z,7.37
2018-03-28T22:16:16.883Z,6.97
2018-03-28T22:18:44.378Z,7.20
2018-03-28T22:21:11.842Z,9.07
2018-03-28T22:23:39.283Z,6.57
2018-03-28T22:26:06.770Z,6.30
2018-03-28T22:28:34.220Z,6.20
2018-03-28T22:31:01.693Z,7.07
2018-03-28T22:33:29.158Z,6.87
2018-03-28T22:35:56.603Z,7.30
2018-03-28T22:38:24.035Z,5.40
2018-03-28T22:40:51.481Z,5.27
2018-03-28T22:43:19.722Z,3.93
2018-03-28T22:45:47.170Z,4.40
2018-03-28T22:48:14.628Z,4.20
2018-03-28T22:50:42.093Z,4.60
2018-03-28T22:53:09.527Z,4.70
2018-03-28T22:55:36.977Z,5.00
2018-03-28T22:58:04.480Z,4.87
2018-03-28T23:00:31.941Z,5.10
2018-03-28T23:02:59.410Z,4.50
2018-03-28T23:05:26.845Z,6.10
2018-03-28T23:07:54.327Z,5.97
2018-03-28T23:10:21.764Z,5.80
2018-03-28T23:12:49.205Z,6.90
2018-03-28T23:15:16.648Z,6.80
2018-03-28T23:17:44.091Z,6.37
2018-03-28T23:20:11.519Z,6.30
2018-03-28T23:22:38.968Z,7.00
2018-03-28T23:25:06.407Z,6.00
2018-03-28T23:27:34.615Z,6.07
2018-03-28T23:30:02.097Z,6.80
2018-03-28T23:32:29.540Z,6.53
2018-03-28T23:34:56.983Z,6.00
2018-03-28T23:37:24.487Z,6.93
2018-03-28T23:39:51.916Z,6.87
2018-03-28T23:42:19.509Z,7.47
2018-03-28T23:44:46.901Z,7.30
2018-03-28T23:47:15.112Z,8.33
2018-03-28T23:49:42.601Z,8.50
2018-03-28T23:52:10.064Z,8.70
2018-03-28T23:54:37.519Z,9.50
2018-03-28T23:57:04.975Z,9.90
2018-03-28T23:59:32.407Z,9.47
